Terminal Aerodrome Forecast
Issued by NWS Goodland, KS

Home | Current Version | Previous Version | Text Only | Print | Product List | Glossary On
Versions: 1 2 3 4 5 6 7 8 9 10 11 12 13
000
FTUS43 KGLD 181740
TAFGLD
TAF
KGLD 181740Z 1818/1918 34022G35KT P6SM SKC
     FM182300 34011KT P6SM SKC
     FM190300 25005KT P6SM SKC=

USA.gov is the U.S. government's official web portal to all federal, state and local government web resources and services.